sensor_id;sensor_type;location;lat;lon;timestamp;P1;durP1;ratioP1;P2;durP2;ratioP2
6027;SDS011;3042;43.194;27.646;2023-04-22T00:00:26;37.10;;;29.30;;
6027;SDS011;3042;43.194;27.646;2023-04-22T00:02:54;31.40;;;28.70;;
6027;SDS011;3042;43.194;27.646;2023-04-22T00:05:21;98.60;;;36.27;;
6027;SDS011;3042;43.194;27.646;2023-04-22T00:07:48;46.40;;;30.40;;
6027;SDS011;3042;43.194;27.646;2023-04-22T00:10:16;37.93;;;27.93;;
6027;SDS011;3042;43.194;27.646;2023-04-22T00:12:43;34.67;;;30.30;;
6027;SDS011;3042;43.194;27.646;2023-04-22T00:15:10;35.07;;;31.93;;
6027;SDS011;3042;43.194;27.646;2023-04-22T00:17:39;31.97;;;28.93;;
6027;SDS011;3042;43.194;27.646;2023-04-22T00:20:07;31.93;;;29.03;;
6027;SDS011;3042;43.194;27.646;2023-04-22T00:22:35;36.70;;;33.10;;
6027;SDS011;3042;43.194;27.646;2023-04-22T00:25:03;42.20;;;31.47;;
6027;SDS011;3042;43.194;27.646;2023-04-22T00:27:30;37.80;;;30.30;;
6027;SDS011;3042;43.194;27.646;2023-04-22T00:29:58;33.80;;;30.73;;
6027;SDS011;3042;43.194;27.646;2023-04-22T00:32:25;37.47;;;33.70;;
6027;SDS011;3042;43.194;27.646;2023-04-22T00:34:53;32.10;;;28.67;;
6027;SDS011;3042;43.194;27.646;2023-04-22T00:37:21;30.33;;;27.63;;
6027;SDS011;3042;43.194;27.646;2023-04-22T00:39:48;31.10;;;28.10;;
6027;SDS011;3042;43.194;27.646;2023-04-22T00:42:16;49.27;;;33.03;;
6027;SDS011;3042;43.194;27.646;2023-04-22T00:44:43;39.20;;;32.00;;
6027;SDS011;3042;43.194;27.646;2023-04-22T00:47:12;39.17;;;33.67;;
6027;SDS011;3042;43.194;27.646;2023-04-22T00:49:40;72.10;;;36.10;;
6027;SDS011;3042;43.194;27.646;2023-04-22T00:52:09;96.23;;;37.00;;
6027;SDS011;3042;43.194;27.646;2023-04-22T00:54:36;69.90;;;34.57;;
6027;SDS011;3042;43.194;27.646;2023-04-22T00:57:03;90.80;;;36.67;;
6027;SDS011;3042;43.194;27.646;2023-04-22T00:59:31;99.93;;;35.53;;
6027;SDS011;3042;43.194;27.646;2023-04-22T01:01:58;64.87;;;34.27;;
6027;SDS011;3042;43.194;27.646;2023-04-22T01:04:26;94.33;;;35.27;;
6027;SDS011;3042;43.194;27.646;2023-04-22T01:06:53;46.03;;;33.77;;
6027;SDS011;3042;43.194;27.646;2023-04-22T01:09:22;67.37;;;36.93;;
6027;SDS011;3042;43.194;27.646;2023-04-22T01:11:49;52.43;;;32.20;;
6027;SDS011;3042;43.194;27.646;2023-04-22T01:14:17;34.03;;;29.67;;
6027;SDS011;3042;43.194;27.646;2023-04-22T01:16:44;42.50;;;35.63;;
6027;SDS011;3042;43.194;27.646;2023-04-22T01:19:12;32.53;;;29.40;;
6027;SDS011;3042;43.194;27.646;2023-04-22T01:21:39;33.00;;;30.20;;
6027;SDS011;3042;43.194;27.646;2023-04-22T01:24:11;38.50;;;32.53;;
6027;SDS011;3042;43.194;27.646;2023-04-22T01:26:39;102.33;;;40.27;;
6027;SDS011;3042;43.194;27.646;2023-04-22T01:29:06;68.63;;;34.50;;
6027;SDS011;3042;43.194;27.646;2023-04-22T01:31:33;41.97;;;36.30;;
6027;SDS011;3042;43.194;27.646;2023-04-22T01:34:00;45.20;;;37.20;;
6027;SDS011;3042;43.194;27.646;2023-04-22T01:36:28;46.13;;;38.90;;
6027;SDS011;3042;43.194;27.646;2023-04-22T01:38:56;39.63;;;35.33;;
6027;SDS011;3042;43.194;27.646;2023-04-22T01:41:25;72.60;;;43.97;;
6027;SDS011;3042;43.194;27.646;2023-04-22T01:43:53;83.07;;;47.20;;
6027;SDS011;3042;43.194;27.646;2023-04-22T01:46:23;88.60;;;43.73;;
6027;SDS011;3042;43.194;27.646;2023-04-22T01:48:50;76.30;;;38.70;;
6027;SDS011;3042;43.194;27.646;2023-04-22T01:51:17;57.37;;;39.93;;
6027;SDS011;3042;43.194;27.646;2023-04-22T01:53:45;43.40;;;37.27;;
6027;SDS011;3042;43.194;27.646;2023-04-22T01:56:13;39.20;;;33.80;;
6027;SDS011;3042;43.194;27.646;2023-04-22T01:58:42;45.73;;;35.63;;
6027;SDS011;3042;43.194;27.646;2023-04-22T02:01:10;39.03;;;35.10;;
6027;SDS011;3042;43.194;27.646;2023-04-22T02:03:38;57.93;;;35.60;;
6027;SDS011;3042;43.194;27.646;2023-04-22T02:06:05;43.67;;;33.07;;
6027;SDS011;3042;43.194;27.646;2023-04-22T02:08:33;38.23;;;32.80;;
6027;SDS011;3042;43.194;27.646;2023-04-22T02:11:00;40.67;;;36.73;;
6027;SDS011;3042;43.194;27.646;2023-04-22T02:13:33;48.87;;;41.00;;
6027;SDS011;3042;43.194;27.646;2023-04-22T02:16:02;39.33;;;35.03;;
6027;SDS011;3042;43.194;27.646;2023-04-22T02:18:30;93.17;;;40.17;;
6027;SDS011;3042;43.194;27.646;2023-04-22T02:20:57;40.83;;;36.50;;
6027;SDS011;3042;43.194;27.646;2023-04-22T02:23:24;39.07;;;31.70;;
6027;SDS011;3042;43.194;27.646;2023-04-22T02:25:53;36.67;;;30.93;;
6027;SDS011;3042;43.194;27.646;2023-04-22T02:28:21;44.77;;;40.07;;
6027;SDS011;3042;43.194;27.646;2023-04-22T02:30:48;68.83;;;63.27;;
6027;SDS011;3042;43.194;27.646;2023-04-22T02:33:17;38.43;;;34.23;;
6027;SDS011;3042;43.194;27.646;2023-04-22T02:35:44;46.27;;;38.50;;
6027;SDS011;3042;43.194;27.646;2023-04-22T02:38:14;56.03;;;35.60;;
6027;SDS011;3042;43.194;27.646;2023-04-22T02:40:46;51.27;;;36.00;;
6027;SDS011;3042;43.194;27.646;2023-04-22T02:43:18;39.50;;;32.57;;
6027;SDS011;3042;43.194;27.646;2023-04-22T02:45:48;44.43;;;39.23;;
6027;SDS011;3042;43.194;27.646;2023-04-22T02:48:17;37.83;;;33.73;;
6027;SDS011;3042;43.194;27.646;2023-04-22T02:50:44;39.17;;;33.67;;
6027;SDS011;3042;43.194;27.646;2023-04-22T02:53:11;35.70;;;30.07;;
6027;SDS011;3042;43.194;27.646;2023-04-22T02:55:39;35.27;;;31.87;;
6027;SDS011;3042;43.194;27.646;2023-04-22T02:58:06;34.73;;;29.97;;
6027;SDS011;3042;43.194;27.646;2023-04-22T03:00:34;33.07;;;30.00;;
6027;SDS011;3042;43.194;27.646;2023-04-22T03:03:01;35.10;;;31.80;;
6027;SDS011;3042;43.194;27.646;2023-04-22T03:05:29;32.13;;;28.80;;
6027;SDS011;3042;43.194;27.646;2023-04-22T03:07:57;33.73;;;30.43;;
6027;SDS011;3042;43.194;27.646;2023-04-22T03:10:24;45.97;;;37.00;;
6027;SDS011;3042;43.194;27.646;2023-04-22T03:12:51;35.37;;;31.57;;
6027;SDS011;3042;43.194;27.646;2023-04-22T03:15:18;46.50;;;36.23;;
6027;SDS011;3042;43.194;27.646;2023-04-22T03:17:45;42.73;;;38.33;;
6027;SDS011;3042;43.194;27.646;2023-04-22T03:20:13;39.93;;;35.07;;
6027;SDS011;3042;43.194;27.646;2023-04-22T03:22:42;42.03;;;33.50;;
6027;SDS011;3042;43.194;27.646;2023-04-22T03:25:09;38.43;;;32.50;;
6027;SDS011;3042;43.194;27.646;2023-04-22T03:27:37;47.30;;;38.10;;
6027;SDS011;3042;43.194;27.646;2023-04-22T03:30:04;41.20;;;33.50;;
6027;SDS011;3042;43.194;27.646;2023-04-22T03:32:32;37.67;;;33.53;;
6027;SDS011;3042;43.194;27.646;2023-04-22T03:34:59;42.60;;;35.17;;
6027;SDS011;3042;43.194;27.646;2023-04-22T03:37:27;40.50;;;33.60;;
6027;SDS011;3042;43.194;27.646;2023-04-22T03:39:55;36.30;;;32.47;;
6027;SDS011;3042;43.194;27.646;2023-04-22T03:42:22;38.60;;;31.70;;
6027;SDS011;3042;43.194;27.646;2023-04-22T03:44:49;42.57;;;31.93;;
6027;SDS011;3042;43.194;27.646;2023-04-22T03:47:17;43.10;;;36.10;;
6027;SDS011;3042;43.194;27.646;2023-04-22T03:49:44;37.73;;;29.03;;
6027;SDS011;3042;43.194;27.646;2023-04-22T03:52:11;31.70;;;28.10;;
6027;SDS011;3042;43.194;27.646;2023-04-22T03:54:38;32.97;;;27.47;;
6027;SDS011;3042;43.194;27.646;2023-04-22T03:57:07;30.07;;;27.60;;
6027;SDS011;3042;43.194;27.646;2023-04-22T03:59:34;31.97;;;29.17;;
6027;SDS011;3042;43.194;27.646;2023-04-22T04:02:01;31.27;;;28.57;;
6027;SDS011;3042;43.194;27.646;2023-04-22T04:04:28;29.63;;;26.80;;
6027;SDS011;3042;43.194;27.646;2023-04-22T04:06:57;40.70;;;27.17;;
6027;SDS011;3042;43.194;27.646;2023-04-22T04:09:24;33.27;;;27.70;;
6027;SDS011;3042;43.194;27.646;2023-04-22T04:11:51;55.80;;;29.30;;
6027;SDS011;3042;43.194;27.646;2023-04-22T04:14:21;40.30;;;33.40;;
6027;SDS011;3042;43.194;27.646;2023-04-22T04:16:50;40.17;;;30.73;;
6027;SDS011;3042;43.194;27.646;2023-04-22T04:19:17;41.20;;;31.60;;
6027;SDS011;3042;43.194;27.646;2023-04-22T04:21:45;31.17;;;28.07;;
6027;SDS011;3042;43.194;27.646;2023-04-22T04:24:12;28.90;;;26.10;;
6027;SDS011;3042;43.194;27.646;2023-04-22T04:26:39;33.03;;;27.87;;
6027;SDS011;3042;43.194;27.646;2023-04-22T04:29:06;43.97;;;34.47;;
6027;SDS011;3042;43.194;27.646;2023-04-22T04:31:35;33.40;;;29.43;;
6027;SDS011;3042;43.194;27.646;2023-04-22T04:34:02;32.00;;;26.00;;
6027;SDS011;3042;43.194;27.646;2023-04-22T04:36:29;32.27;;;26.27;;
6027;SDS011;3042;43.194;27.646;2023-04-22T04:38:57;40.57;;;25.40;;
6027;SDS011;3042;43.194;27.646;2023-04-22T04:41:24;28.40;;;25.90;;
6027;SDS011;3042;43.194;27.646;2023-04-22T04:43:52;31.37;;;27.93;;
6027;SDS011;3042;43.194;27.646;2023-04-22T04:46:19;36.20;;;27.20;;
6027;SDS011;3042;43.194;27.646;2023-04-22T04:48:48;40.77;;;36.83;;
6027;SDS011;3042;43.194;27.646;2023-04-22T04:51:15;36.97;;;32.97;;
6027;SDS011;3042;43.194;27.646;2023-04-22T04:53:44;37.90;;;34.00;;
6027;SDS011;3042;43.194;27.646;2023-04-22T04:56:17;33.27;;;29.77;;
6027;SDS011;3042;43.194;27.646;2023-04-22T04:58:45;38.67;;;33.47;;
6027;SDS011;3042;43.194;27.646;2023-04-22T05:01:13;63.50;;;34.10;;
6027;SDS011;3042;43.194;27.646;2023-04-22T05:03:40;37.47;;;26.40;;
6027;SDS011;3042;43.194;27.646;2023-04-22T05:06:10;57.63;;;27.33;;
6027;SDS011;3042;43.194;27.646;2023-04-22T05:08:37;33.10;;;28.87;;
6027;SDS011;3042;43.194;27.646;2023-04-22T05:11:06;85.57;;;37.00;;
6027;SDS011;3042;43.194;27.646;2023-04-22T05:13:41;32.23;;;28.90;;
6027;SDS011;3042;43.194;27.646;2023-04-22T05:36:41;29.57;;;26.43;;
6027;SDS011;3042;43.194;27.646;2023-04-22T06:45:55;28.43;;;23.30;;
6027;SDS011;3042;43.194;27.646;2023-04-22T06:48:22;27.67;;;22.70;;
6027;SDS011;3042;43.194;27.646;2023-04-22T06:50:51;28.70;;;21.37;;
6027;SDS011;3042;43.194;27.646;2023-04-22T06:53:19;28.43;;;23.10;;
6027;SDS011;3042;43.194;27.646;2023-04-22T06:55:48;33.20;;;22.70;;
6027;SDS011;3042;43.194;27.646;2023-04-22T06:58:15;29.43;;;26.47;;
6027;SDS011;3042;43.194;27.646;2023-04-22T07:01:00;31.27;;;24.83;;
6027;SDS011;3042;43.194;27.646;2023-04-22T07:09:20;84.50;;;27.97;;
6027;SDS011;3042;43.194;27.646;2023-04-22T07:11:53;24.37;;;22.17;;
6027;SDS011;3042;43.194;27.646;2023-04-22T07:14:24;26.03;;;23.83;;
6027;SDS011;3042;43.194;27.646;2023-04-22T07:16:52;30.93;;;21.20;;
6027;SDS011;3042;43.194;27.646;2023-04-22T07:19:23;20.97;;;19.07;;
6027;SDS011;3042;43.194;27.646;2023-04-22T07:21:50;22.80;;;20.90;;
6027;SDS011;3042;43.194;27.646;2023-04-22T07:24:21;30.17;;;22.07;;
6027;SDS011;3042;43.194;27.646;2023-04-22T07:26:48;22.60;;;20.50;;
6027;SDS011;3042;43.194;27.646;2023-04-22T07:29:17;25.37;;;22.97;;
6027;SDS011;3042;43.194;27.646;2023-04-22T07:31:46;24.70;;;22.50;;
6027;SDS011;3042;43.194;27.646;2023-04-22T07:34:16;25.10;;;22.60;;
6027;SDS011;3042;43.194;27.646;2023-04-22T07:36:43;22.33;;;20.23;;
6027;SDS011;3042;43.194;27.646;2023-04-22T07:39:11;23.90;;;21.43;;
6027;SDS011;3042;43.194;27.646;2023-04-22T07:41:41;25.40;;;21.70;;
6027;SDS011;3042;43.194;27.646;2023-04-22T07:44:10;26.77;;;21.97;;
6027;SDS011;3042;43.194;27.646;2023-04-22T07:46:47;30.13;;;26.00;;
6027;SDS011;3042;43.194;27.646;2023-04-22T07:49:15;23.47;;;21.00;;
6027;SDS011;3042;43.194;27.646;2023-04-22T07:51:45;23.20;;;20.90;;
6027;SDS011;3042;43.194;27.646;2023-04-22T07:54:14;31.67;;;22.20;;
6027;SDS011;3042;43.194;27.646;2023-04-22T07:56:43;37.93;;;25.10;;
6027;SDS011;3042;43.194;27.646;2023-04-22T07:59:10;29.87;;;19.50;;
6027;SDS011;3042;43.194;27.646;2023-04-22T08:01:38;23.67;;;20.90;;
6027;SDS011;3042;43.194;27.646;2023-04-22T08:04:05;20.00;;;18.20;;
6027;SDS011;3042;43.194;27.646;2023-04-22T08:06:32;46.87;;;20.47;;
6027;SDS011;3042;43.194;27.646;2023-04-22T08:09:00;32.20;;;19.40;;
6027;SDS011;3042;43.194;27.646;2023-04-22T08:11:27;32.40;;;20.50;;
6027;SDS011;3042;43.194;27.646;2023-04-22T08:13:56;20.27;;;18.47;;
6027;SDS011;3042;43.194;27.646;2023-04-22T08:16:23;26.20;;;18.60;;
6027;SDS011;3042;43.194;27.646;2023-04-22T08:18:56;28.30;;;22.00;;
6027;SDS011;3042;43.194;27.646;2023-04-22T08:21:24;19.53;;;17.63;;
6027;SDS011;3042;43.194;27.646;2023-04-22T08:23:51;31.73;;;19.03;;
6027;SDS011;3042;43.194;27.646;2023-04-22T08:26:19;21.00;;;19.27;;
6027;SDS011;3042;43.194;27.646;2023-04-22T08:28:48;38.83;;;22.20;;
6027;SDS011;3042;43.194;27.646;2023-04-22T08:31:16;19.10;;;17.00;;
6027;SDS011;3042;43.194;27.646;2023-04-22T08:33:57;18.63;;;16.43;;
6027;SDS011;3042;43.194;27.646;2023-04-22T08:36:30;21.13;;;17.87;;
6027;SDS011;3042;43.194;27.646;2023-04-22T08:39:06;34.57;;;20.33;;
6027;SDS011;3042;43.194;27.646;2023-04-22T08:41:47;20.83;;;18.40;;
6027;SDS011;3042;43.194;27.646;2023-04-22T08:44:38;34.70;;;25.10;;
6027;SDS011;3042;43.194;27.646;2023-04-22T08:56:59;27.60;;;21.90;;
6027;SDS011;3042;43.194;27.646;2023-04-22T08:59:58;24.00;;;22.00;;
6027;SDS011;3042;43.194;27.646;2023-04-22T09:10:47;29.20;;;22.13;;
6027;SDS011;3042;43.194;27.646;2023-04-22T09:12:45;25.77;;;23.13;;
6027;SDS011;3042;43.194;27.646;2023-04-22T09:18:40;20.17;;;18.90;;
6027;SDS011;3042;43.194;27.646;2023-04-22T09:21:09;18.73;;;16.57;;
6027;SDS011;3042;43.194;27.646;2023-04-22T09:27:36;17.93;;;16.70;;
6027;SDS011;3042;43.194;27.646;2023-04-22T09:30:08;17.57;;;16.07;;
6027;SDS011;3042;43.194;27.646;2023-04-22T09:32:36;20.03;;;18.47;;
6027;SDS011;3042;43.194;27.646;2023-04-22T09:35:05;25.77;;;20.90;;
6027;SDS011;3042;43.194;27.646;2023-04-22T09:37:35;24.20;;;22.40;;
6027;SDS011;3042;43.194;27.646;2023-04-22T09:40:07;18.80;;;16.90;;
6027;SDS011;3042;43.194;27.646;2023-04-22T09:42:34;19.07;;;17.87;;
6027;SDS011;3042;43.194;27.646;2023-04-22T09:45:16;17.90;;;16.90;;
6027;SDS011;3042;43.194;27.646;2023-04-22T09:47:52;24.73;;;18.50;;
6027;SDS011;3042;43.194;27.646;2023-04-22T09:50:24;18.37;;;16.83;;
6027;SDS011;3042;43.194;27.646;2023-04-22T09:52:54;18.70;;;17.40;;
6027;SDS011;3042;43.194;27.646;2023-04-22T09:55:24;20.30;;;18.40;;
6027;SDS011;3042;43.194;27.646;2023-04-22T09:57:55;22.60;;;20.60;;
6027;SDS011;3042;43.194;27.646;2023-04-22T10:00:29;22.13;;;20.63;;
6027;SDS011;3042;43.194;27.646;2023-04-22T10:02:57;51.63;;;22.40;;
6027;SDS011;3042;43.194;27.646;2023-04-22T10:05:26;24.53;;;21.70;;
6027;SDS011;3042;43.194;27.646;2023-04-22T10:07:55;23.23;;;21.33;;
6027;SDS011;3042;43.194;27.646;2023-04-22T10:10:27;45.87;;;21.60;;
6027;SDS011;3042;43.194;27.646;2023-04-22T10:12:57;21.17;;;19.10;;
6027;SDS011;3042;43.194;27.646;2023-04-22T10:15:26;22.97;;;20.07;;
6027;SDS011;3042;43.194;27.646;2023-04-22T10:17:58;22.93;;;20.60;;
6027;SDS011;3042;43.194;27.646;2023-04-22T10:20:27;20.07;;;18.60;;
6027;SDS011;3042;43.194;27.646;2023-04-22T10:22:55;25.53;;;22.83;;
6027;SDS011;3042;43.194;27.646;2023-04-22T10:25:23;49.13;;;21.30;;
6027;SDS011;3042;43.194;27.646;2023-04-22T10:27:55;31.37;;;24.20;;
6027;SDS011;3042;43.194;27.646;2023-04-22T10:30:34;18.80;;;17.23;;
6027;SDS011;3042;43.194;27.646;2023-04-22T10:36:07;23.63;;;21.10;;
6027;SDS011;3042;43.194;27.646;2023-04-22T10:38:37;22.47;;;21.00;;
6027;SDS011;3042;43.194;27.646;2023-04-22T10:41:12;26.37;;;24.17;;
6027;SDS011;3042;43.194;27.646;2023-04-22T10:43:56;19.20;;;17.50;;
6027;SDS011;3042;43.194;27.646;2023-04-22T10:46:59;26.20;;;23.23;;
6027;SDS011;3042;43.194;27.646;2023-04-22T10:57:03;24.50;;;22.53;;
6027;SDS011;3042;43.194;27.646;2023-04-22T10:59:40;25.27;;;23.00;;
6027;SDS011;3042;43.194;27.646;2023-04-22T11:02:14;23.97;;;21.70;;
6027;SDS011;3042;43.194;27.646;2023-04-22T11:04:45;24.87;;;22.40;;
6027;SDS011;3042;43.194;27.646;2023-04-22T11:10:52;24.60;;;22.33;;
6027;SDS011;3042;43.194;27.646;2023-04-22T11:13:35;25.77;;;23.87;;
6027;SDS011;3042;43.194;27.646;2023-04-22T11:16:02;24.33;;;21.93;;
6027;SDS011;3042;43.194;27.646;2023-04-22T11:18:41;23.77;;;21.60;;
6027;SDS011;3042;43.194;27.646;2023-04-22T11:21:12;23.57;;;21.50;;
6027;SDS011;3042;43.194;27.646;2023-04-22T11:23:48;23.63;;;21.70;;
6027;SDS011;3042;43.194;27.646;2023-04-22T11:26:17;35.43;;;21.10;;
6027;SDS011;3042;43.194;27.646;2023-04-22T11:28:45;23.80;;;22.17;;
6027;SDS011;3042;43.194;27.646;2023-04-22T11:31:13;23.47;;;21.67;;
6027;SDS011;3042;43.194;27.646;2023-04-22T11:33:53;25.67;;;23.87;;
6027;SDS011;3042;43.194;27.646;2023-04-22T11:40:30;26.73;;;24.43;;
6027;SDS011;3042;43.194;27.646;2023-04-22T11:43:33;25.93;;;23.60;;
6027;SDS011;3042;43.194;27.646;2023-04-22T11:49:34;22.73;;;20.57;;
6027;SDS011;3042;43.194;27.646;2023-04-22T11:52:03;29.53;;;22.80;;
6027;SDS011;3042;43.194;27.646;2023-04-22T11:54:31;33.50;;;30.60;;
6027;SDS011;3042;43.194;27.646;2023-04-22T11:57:00;27.33;;;22.90;;
6027;SDS011;3042;43.194;27.646;2023-04-22T11:59:32;19.93;;;18.33;;
6027;SDS011;3042;43.194;27.646;2023-04-22T12:01:59;26.57;;;23.20;;
6027;SDS011;3042;43.194;27.646;2023-04-22T12:04:37;18.77;;;17.67;;
6027;SDS011;3042;43.194;27.646;2023-04-22T12:07:27;22.40;;;20.70;;
6027;SDS011;3042;43.194;27.646;2023-04-22T12:11:41;24.80;;;22.73;;
6027;SDS011;3042;43.194;27.646;2023-04-22T12:14:03;20.27;;;18.50;;
6027;SDS011;3042;43.194;27.646;2023-04-22T12:17:10;54.10;;;23.30;;
6027;SDS011;3042;43.194;27.646;2023-04-22T12:19:43;20.70;;;19.20;;
6027;SDS011;3042;43.194;27.646;2023-04-22T12:22:22;21.27;;;19.97;;
6027;SDS011;3042;43.194;27.646;2023-04-22T12:31:31;22.47;;;20.20;;
6027;SDS011;3042;43.194;27.646;2023-04-22T12:34:49;22.17;;;20.43;;
6027;SDS011;3042;43.194;27.646;2023-04-22T12:51:21;17.87;;;16.73;;
6027;SDS011;3042;43.194;27.646;2023-04-22T12:53:52;19.37;;;17.60;;
6027;SDS011;3042;43.194;27.646;2023-04-22T12:56:32;21.60;;;19.40;;
6027;SDS011;3042;43.194;27.646;2023-04-22T12:59:21;19.57;;;18.03;;
6027;SDS011;3042;43.194;27.646;2023-04-22T13:01:55;19.00;;;17.00;;
6027;SDS011;3042;43.194;27.646;2023-04-22T13:05:15;18.77;;;16.80;;
6027;SDS011;3042;43.194;27.646;2023-04-22T13:33:48;22.60;;;20.70;;
6027;SDS011;3042;43.194;27.646;2023-04-22T13:36:32;55.57;;;24.60;;
6027;SDS011;3042;43.194;27.646;2023-04-22T13:39:03;22.37;;;19.83;;
6027;SDS011;3042;43.194;27.646;2023-04-22T13:41:32;24.43;;;17.30;;
6027;SDS011;3042;43.194;27.646;2023-04-22T13:44:02;30.97;;;19.20;;
6027;SDS011;3042;43.194;27.646;2023-04-22T13:46:31;20.77;;;19.10;;
6027;SDS011;3042;43.194;27.646;2023-04-22T13:49:02;19.27;;;17.40;;
6027;SDS011;3042;43.194;27.646;2023-04-22T13:51:31;21.77;;;19.97;;
6027;SDS011;3042;43.194;27.646;2023-04-22T13:54:02;19.87;;;17.80;;
6027;SDS011;3042;43.194;27.646;2023-04-22T13:56:29;18.50;;;16.70;;
6027;SDS011;3042;43.194;27.646;2023-04-22T13:59:01;20.10;;;18.50;;
6027;SDS011;3042;43.194;27.646;2023-04-22T14:01:34;20.33;;;19.00;;
6027;SDS011;3042;43.194;27.646;2023-04-22T14:04:05;21.07;;;18.83;;
6027;SDS011;3042;43.194;27.646;2023-04-22T14:06:32;22.13;;;17.20;;
6027;SDS011;3042;43.194;27.646;2023-04-22T14:08:59;83.03;;;25.57;;
6027;SDS011;3042;43.194;27.646;2023-04-22T14:11:30;18.07;;;16.50;;
6027;SDS011;3042;43.194;27.646;2023-04-22T14:14:00;39.93;;;20.47;;
6027;SDS011;3042;43.194;27.646;2023-04-22T14:16:30;21.73;;;18.73;;
6027;SDS011;3042;43.194;27.646;2023-04-22T14:18:58;45.63;;;21.17;;
6027;SDS011;3042;43.194;27.646;2023-04-22T14:27:53;20.23;;;18.50;;
6027;SDS011;3042;43.194;27.646;2023-04-22T14:33:56;19.17;;;17.87;;
6027;SDS011;3042;43.194;27.646;2023-04-22T14:36:58;22.83;;;20.60;;
6027;SDS011;3042;43.194;27.646;2023-04-22T14:39:29;29.60;;;19.83;;
6027;SDS011;3042;43.194;27.646;2023-04-22T14:41:58;22.93;;;20.03;;
6027;SDS011;3042;43.194;27.646;2023-04-22T14:44:34;20.03;;;18.30;;
6027;SDS011;3042;43.194;27.646;2023-04-22T14:47:32;19.83;;;18.27;;
6027;SDS011;3042;43.194;27.646;2023-04-22T14:50:00;22.10;;;20.47;;
6027;SDS011;3042;43.194;27.646;2023-04-22T14:52:33;22.57;;;20.87;;
6027;SDS011;3042;43.194;27.646;2023-04-22T14:55:08;22.07;;;20.17;;
6027;SDS011;3042;43.194;27.646;2023-04-22T14:57:38;22.03;;;19.87;;
6027;SDS011;3042;43.194;27.646;2023-04-22T15:00:07;22.00;;;20.33;;
6027;SDS011;3042;43.194;27.646;2023-04-22T15:02:36;60.13;;;22.00;;
6027;SDS011;3042;43.194;27.646;2023-04-22T15:05:03;30.53;;;19.57;;
6027;SDS011;3042;43.194;27.646;2023-04-22T15:07:41;20.77;;;18.70;;
6027;SDS011;3042;43.194;27.646;2023-04-22T15:10:21;21.43;;;19.23;;
6027;SDS011;3042;43.194;27.646;2023-04-22T15:12:49;21.33;;;19.40;;
6027;SDS011;3042;43.194;27.646;2023-04-22T15:15:18;21.47;;;19.30;;
6027;SDS011;3042;43.194;27.646;2023-04-22T15:17:45;20.83;;;19.53;;
6027;SDS011;3042;43.194;27.646;2023-04-22T15:20:13;21.47;;;20.10;;
6027;SDS011;3042;43.194;27.646;2023-04-22T15:22:40;24.17;;;22.43;;
6027;SDS011;3042;43.194;27.646;2023-04-22T15:25:17;19.10;;;17.90;;
6027;SDS011;3042;43.194;27.646;2023-04-22T15:27:44;20.23;;;18.63;;
6027;SDS011;3042;43.194;27.646;2023-04-22T15:30:12;22.57;;;21.07;;
6027;SDS011;3042;43.194;27.646;2023-04-22T15:32:41;22.03;;;20.60;;
6027;SDS011;3042;43.194;27.646;2023-04-22T15:35:21;30.43;;;21.70;;
6027;SDS011;3042;43.194;27.646;2023-04-22T15:39:32;31.07;;;21.90;;
6027;SDS011;3042;43.194;27.646;2023-04-22T15:42:11;21.40;;;19.50;;
6027;SDS011;3042;43.194;27.646;2023-04-22T15:44:47;21.87;;;20.30;;
6027;SDS011;3042;43.194;27.646;2023-04-22T15:47:17;23.00;;;20.90;;
6027;SDS011;3042;43.194;27.646;2023-04-22T15:49:46;24.27;;;22.50;;
6027;SDS011;3042;43.194;27.646;2023-04-22T15:52:13;25.27;;;22.97;;
6027;SDS011;3042;43.194;27.646;2023-04-22T15:54:45;24.80;;;22.53;;
6027;SDS011;3042;43.194;27.646;2023-04-22T15:57:14;23.73;;;21.80;;
6027;SDS011;3042;43.194;27.646;2023-04-22T15:59:41;24.70;;;22.80;;
6027;SDS011;3042;43.194;27.646;2023-04-22T16:02:08;25.27;;;23.27;;
6027;SDS011;3042;43.194;27.646;2023-04-22T16:04:39;48.10;;;25.73;;
6027;SDS011;3042;43.194;27.646;2023-04-22T16:07:07;31.60;;;22.87;;
6027;SDS011;3042;43.194;27.646;2023-04-22T16:09:34;25.03;;;23.23;;
6027;SDS011;3042;43.194;27.646;2023-04-22T16:12:02;24.07;;;22.23;;
6027;SDS011;3042;43.194;27.646;2023-04-22T16:14:29;25.37;;;23.20;;
6027;SDS011;3042;43.194;27.646;2023-04-22T16:16:56;24.43;;;22.50;;
6027;SDS011;3042;43.194;27.646;2023-04-22T16:19:23;25.70;;;23.50;;
6027;SDS011;3042;43.194;27.646;2023-04-22T16:21:50;24.90;;;23.10;;
6027;SDS011;3042;43.194;27.646;2023-04-22T16:24:19;25.67;;;23.57;;
6027;SDS011;3042;43.194;27.646;2023-04-22T16:26:46;26.47;;;24.27;;
6027;SDS011;3042;43.194;27.646;2023-04-22T16:29:13;26.90;;;24.47;;
6027;SDS011;3042;43.194;27.646;2023-04-22T16:31:40;26.80;;;23.97;;
6027;SDS011;3042;43.194;27.646;2023-04-22T16:34:08;28.43;;;26.00;;
6027;SDS011;3042;43.194;27.646;2023-04-22T16:36:35;25.90;;;23.80;;
6027;SDS011;3042;43.194;27.646;2023-04-22T16:39:02;24.50;;;22.70;;
6027;SDS011;3042;43.194;27.646;2023-04-22T16:41:32;28.83;;;26.00;;
6027;SDS011;3042;43.194;27.646;2023-04-22T16:43:59;68.07;;;27.67;;
6027;SDS011;3042;43.194;27.646;2023-04-22T16:46:27;70.93;;;29.67;;
6027;SDS011;3042;43.194;27.646;2023-04-22T16:48:54;45.53;;;26.10;;
6027;SDS011;3042;43.194;27.646;2023-04-22T16:51:21;24.40;;;22.57;;
6027;SDS011;3042;43.194;27.646;2023-04-22T16:53:48;30.77;;;27.47;;
6027;SDS011;3042;43.194;27.646;2023-04-22T16:56:15;26.90;;;24.57;;
6027;SDS011;3042;43.194;27.646;2023-04-22T16:58:44;83.63;;;28.43;;
6027;SDS011;3042;43.194;27.646;2023-04-22T17:01:11;35.93;;;26.60;;
6027;SDS011;3042;43.194;27.646;2023-04-22T17:03:38;50.43;;;28.07;;
6027;SDS011;3042;43.194;27.646;2023-04-22T17:06:05;51.00;;;28.27;;
6027;SDS011;3042;43.194;27.646;2023-04-22T17:08:33;59.97;;;27.80;;
6027;SDS011;3042;43.194;27.646;2023-04-22T17:11:00;48.80;;;29.20;;
6027;SDS011;3042;43.194;27.646;2023-04-22T17:13:27;53.43;;;29.10;;
6027;SDS011;3042;43.194;27.646;2023-04-22T17:15:56;119.87;;;36.93;;
6027;SDS011;3042;43.194;27.646;2023-04-22T17:18:23;86.53;;;56.70;;
6027;SDS011;3042;43.194;27.646;2023-04-22T17:20:50;58.67;;;31.50;;
6027;SDS011;3042;43.194;27.646;2023-04-22T17:23:17;84.53;;;35.07;;
6027;SDS011;3042;43.194;27.646;2023-04-22T17:25:45;39.73;;;28.80;;
6027;SDS011;3042;43.194;27.646;2023-04-22T17:28:12;45.43;;;31.60;;
6027;SDS011;3042;43.194;27.646;2023-04-22T17:30:40;119.23;;;52.70;;
6027;SDS011;3042;43.194;27.646;2023-04-22T17:33:08;125.77;;;61.43;;
6027;SDS011;3042;43.194;27.646;2023-04-22T17:35:36;142.80;;;82.73;;
6027;SDS011;3042;43.194;27.646;2023-04-22T17:38:03;114.47;;;60.40;;
6027;SDS011;3042;43.194;27.646;2023-04-22T17:40:30;143.90;;;73.17;;
6027;SDS011;3042;43.194;27.646;2023-04-22T17:42:57;91.97;;;53.53;;
6027;SDS011;3042;43.194;27.646;2023-04-22T17:45:24;45.63;;;39.30;;
6027;SDS011;3042;43.194;27.646;2023-04-22T17:47:51;43.03;;;34.90;;
6027;SDS011;3042;43.194;27.646;2023-04-22T17:50:20;75.53;;;32.33;;
6027;SDS011;3042;43.194;27.646;2023-04-22T17:52:48;38.30;;;32.70;;
6027;SDS011;3042;43.194;27.646;2023-04-22T17:55:15;60.83;;;43.60;;
6027;SDS011;3042;43.194;27.646;2023-04-22T17:57:42;49.03;;;38.00;;
6027;SDS011;3042;43.194;27.646;2023-04-22T18:00:10;128.50;;;71.40;;
6027;SDS011;3042;43.194;27.646;2023-04-22T18:02:38;52.97;;;43.97;;
6027;SDS011;3042;43.194;27.646;2023-04-22T18:05:06;72.27;;;34.10;;
6027;SDS011;3042;43.194;27.646;2023-04-22T18:07:35;91.40;;;68.00;;
6027;SDS011;3042;43.194;27.646;2023-04-22T18:10:03;46.67;;;35.33;;